createdAt,value
2019-01-10T00:00:10.092Z,102209.08
2019-01-10T00:01:44.057Z,102214.41
2019-01-10T00:03:18.024Z,102208.35
2019-01-10T00:04:51.810Z,102209.31
2019-01-10T00:06:25.478Z,102204.95
2019-01-10T00:07:58.581Z,102205.05
2019-01-10T00:09:31.317Z,102206.00
2019-01-10T00:11:04.299Z,102207.82
2019-01-10T00:12:39.489Z,102202.98
2019-01-10T00:14:11.131Z,102203.46
2019-01-10T00:15:44.804Z,102205.39
2019-01-10T00:17:17.597Z,102199.70
2019-01-10T00:18:51.427Z,102202.37
2019-01-10T00:20:25.374Z,102201.59
2019-01-10T00:22:00.097Z,102201.72
2019-01-10T00:23:33.124Z,102200.02
2019-01-10T00:25:07.068Z,102203.16
2019-01-10T00:26:40.991Z,102207.63
2019-01-10T00:28:14.996Z,102209.67
2019-01-10T00:29:48.787Z,102211.94
2019-01-10T00:31:21.733Z,102209.02
2019-01-10T00:32:54.782Z,102210.84
2019-01-10T00:34:27.514Z,102210.84
2019-01-10T00:36:01.312Z,102211.91
2019-01-10T00:37:35.015Z,102209.56
2019-01-10T00:39:08.027Z,102217.43
2019-01-10T00:40:41.090Z,102221.91
2019-01-10T00:42:15.839Z,102218.51
2019-01-10T00:43:49.712Z,102217.66
2019-01-10T00:45:24.796Z,102215.84
2019-01-10T00:46:58.569Z,102222.98
2019-01-10T00:48:32.395Z,102222.61
2019-01-10T00:50:06.107Z,102229.26
2019-01-10T00:51:39.727Z,102225.75
2019-01-10T00:53:13.716Z,102226.72
2019-01-10T00:54:47.458Z,102234.33
2019-01-10T00:56:21.355Z,102224.66
2019-01-10T00:57:54.008Z,102230.81
2019-01-10T00:59:26.827Z,102221.22
2019-01-10T01:01:00.051Z,102223.88
2019-01-10T01:02:33.752Z,102226.17
2019-01-10T01:04:08.606Z,102235.48
2019-01-10T01:05:42.494Z,102228.47
2019-01-10T01:07:16.326Z,102231.61
2019-01-10T01:08:49.154Z,102233.41
2019-01-10T01:10:23.898Z,102233.53
2019-01-10T01:11:56.802Z,102233.16
2019-01-10T01:13:29.772Z,102234.97
2019-01-10T01:15:03.636Z,102231.43
2019-01-10T01:16:37.881Z,102237.63
2019-01-10T01:18:11.768Z,102233.64
2019-01-10T01:19:44.661Z,102244.28
2019-01-10T01:21:19.494Z,102244.17
2019-01-10T01:22:52.255Z,102244.17
2019-01-10T01:24:25.264Z,102236.67
2019-01-10T01:25:59.098Z,102244.05
2019-01-10T01:27:32.010Z,102245.02
2019-01-10T01:29:05.074Z,102249.26
2019-01-10T01:30:41.764Z,102246.12
2019-01-10T01:32:14.759Z,102246.00
2019-01-10T01:33:47.579Z,102248.19
2019-01-10T01:35:21.784Z,102248.59
2019-01-10T01:36:54.507Z,102250.28
2019-01-10T01:38:28.212Z,102250.65
2019-01-10T01:40:02.839Z,102246.91
2019-01-10T01:41:35.747Z,102249.46
2019-01-10T01:43:10.373Z,102248.50
2019-01-10T01:44:44.305Z,102244.51
2019-01-10T01:46:17.913Z,102240.44
2019-01-10T01:47:50.832Z,102244.31
2019-01-10T01:49:24.698Z,102249.63
2019-01-10T01:50:57.505Z,102242.02
2019-01-10T01:52:30.495Z,102242.87
2019-01-10T01:54:04.357Z,102239.36
2019-01-10T01:55:37.032Z,102241.66
2019-01-10T01:57:09.900Z,102241.54
2019-01-10T01:58:42.908Z,102243.72
2019-01-10T02:00:16.553Z,102242.87
2019-01-10T02:01:49.362Z,102239.73
2019-01-10T02:03:29.329Z,102231.38
2019-01-10T02:05:03.083Z,102233.19
2019-01-10T02:06:36.927Z,102241.06
2019-01-10T02:08:09.783Z,102237.06
2019-01-10T02:09:43.572Z,102241.06
2019-01-10T02:11:17.472Z,102236.59
2019-01-10T02:12:51.270Z,102231.16
2019-01-10T02:14:25.112Z,102233.08
2019-01-10T02:15:58.998Z,102227.28
2019-01-10T02:17:32.717Z,102229.09
2019-01-10T02:19:05.673Z,102229.09
2019-01-10T02:20:38.527Z,102231.63
2019-01-10T02:22:11.546Z,102225.83
2019-01-10T02:23:45.174Z,102230.19
2019-01-10T02:25:19.162Z,102231.89
2019-01-10T02:26:52.103Z,102232.77
2019-01-10T02:28:26.061Z,102223.83
2019-01-10T02:29:59.075Z,102222.38
2019-01-10T02:31:33.095Z,102226.73
2019-01-10T02:33:06.988Z,102220.45
2019-01-10T02:34:40.770Z,102216.09
2019-01-10T02:36:13.694Z,102218.16
2019-01-10T02:37:47.516Z,102212.84
2019-01-10T02:39:22.495Z,102215.50
2019-01-10T02:40:57.311Z,102218.16
2019-01-10T02:42:31.101Z,102216.47
2019-01-10T02:44:04.919Z,102209.81
2019-01-10T02:45:39.582Z,102214.17
2019-01-10T02:47:12.406Z,102211.51
2019-01-10T02:48:46.239Z,102215.50
2019-01-10T02:50:21.082Z,102218.16
2019-01-10T02:51:54.796Z,102217.80
2019-01-10T02:53:27.667Z,102217.54
2019-01-10T02:55:00.518Z,102214.03
2019-01-10T02:56:34.303Z,102213.27
2019-01-10T02:58:08.056Z,102216.80
2019-01-10T02:59:41.774Z,102227.53
2019-01-10T03:01:15.379Z,102213.50
2019-01-10T03:02:48.298Z,102217.13
2019-01-10T03:04:22.060Z,102218.93
2019-01-10T03:05:55.960Z,102216.39
2019-01-10T03:07:29.911Z,102219.24
2019-01-10T03:09:03.568Z,102213.55
2019-01-10T03:10:39.359Z,102221.17
2019-01-10T03:12:12.254Z,102217.77
2019-01-10T03:13:46.078Z,102215.71
2019-01-10T03:15:18.702Z,102217.60
2019-01-10T03:16:51.666Z,102213.73
2019-01-10T03:18:24.406Z,102213.47
2019-01-10T03:19:57.228Z,102215.03
2019-01-10T03:21:30.097Z,102215.96
2019-01-10T03:23:02.915Z,102214.27
2019-01-10T03:24:35.651Z,102216.66
2019-01-10T03:26:09.646Z,102213.27
2019-01-10T03:27:42.550Z,102209.39
2019-01-10T03:29:15.558Z,102212.13
2019-01-10T03:30:48.589Z,102215.02
2019-01-10T03:32:21.412Z,102215.13
2019-01-10T03:33:56.431Z,102213.06
2019-01-10T03:35:30.280Z,102209.27
2019-01-10T03:37:04.246Z,102215.55
2019-01-10T03:38:37.168Z,102207.20
2019-01-10T03:40:10.191Z,102206.10
2019-01-10T03:41:44.150Z,102209.72
2019-01-10T03:43:18.000Z,102204.97
2019-01-10T03:44:51.979Z,102205.55
2019-01-10T03:46:24.900Z,102206.88
2019-01-10T03:47:58.908Z,102205.78
2019-01-10T03:49:31.767Z,102211.28
2019-01-10T03:51:04.394Z,102206.56
2019-01-10T03:52:37.150Z,102204.49
2019-01-10T03:54:10.009Z,102208.22
2019-01-10T03:55:42.863Z,102204.31
2019-01-10T03:57:16.725Z,102206.13
2019-01-10T03:58:49.653Z,102199.81
2019-01-10T04:00:24.455Z,102200.77
2019-01-10T04:01:57.375Z,102205.31
2019-01-10T04:03:30.317Z,102198.41
2019-01-10T04:05:04.151Z,102202.77
2019-01-10T04:06:39.549Z,102201.19
2019-01-10T04:08:11.025Z,102198.75
2019-01-10T04:09:43.714Z,102200.08
2019-01-10T04:11:17.537Z,102192.77
2019-01-10T04:12:52.268Z,102193.25
2019-01-10T04:14:26.021Z,102190.81
2019-01-10T04:15:58.761Z,102188.72
2019-01-10T04:17:32.508Z,102189.67
2019-01-10T04:19:06.326Z,102187.61
2019-01-10T04:20:41.300Z,102187.72
2019-01-10T04:22:14.079Z,102183.95
2019-01-10T04:23:46.959Z,102184.51
2019-01-10T04:25:19.843Z,102181.48
2019-01-10T04:26:52.548Z,102189.56
2019-01-10T04:28:26.211Z,102193.17
2019-01-10T04:30:00.291Z,102187.97
2019-01-10T04:31:34.864Z,102193.84
2019-01-10T04:33:08.145Z,102193.09
2019-01-10T04:34:42.018Z,102194.53
2019-01-10T04:36:14.909Z,102185.72
2019-01-10T04:37:49.531Z,102187.62
2019-01-10T04:39:24.344Z,102180.70
2019-01-10T04:40:58.245Z,102187.81
2019-01-10T04:42:32.128Z,102182.61
2019-01-10T04:44:07.149Z,102188.51
2019-01-10T04:45:39.650Z,102183.78
2019-01-10T04:47:13.432Z,102182.45
2019-01-10T04:48:47.271Z,102186.99
2019-01-10T04:50:21.140Z,102182.27
2019-01-10T04:51:55.902Z,102183.33
2019-01-10T04:53:29.721Z,102179.09
2019-01-10T04:55:02.625Z,102175.95
2019-01-10T04:56:35.545Z,102180.97
2019-01-10T04:58:09.591Z,102179.27
2019-01-10T04:59:43.412Z,102175.77
2019-01-10T05:01:17.234Z,102175.50
2019-01-10T05:02:51.135Z,102170.30
2019-01-10T05:04:25.014Z,102168.98
2019-01-10T05:05:58.950Z,102168.13
2019-01-10T05:07:33.641Z,102169.05
2019-01-10T05:09:06.434Z,102169.05
2019-01-10T05:10:39.347Z,102166.03
2019-01-10T05:12:12.265Z,102165.66
2019-01-10T05:13:46.125Z,102174.58
2019-01-10T05:15:20.796Z,102175.53
2019-01-10T05:16:53.774Z,102176.01
2019-01-10T05:18:26.660Z,102166.83
2019-01-10T05:20:00.388Z,102166.45
2019-01-10T05:21:34.073Z,102168.73
2019-01-10T05:23:07.738Z,102168.33
2019-01-10T05:24:40.952Z,102167.11
2019-01-10T05:26:14.630Z,102174.22
2019-01-10T05:27:48.402Z,102164.56
2019-01-10T05:29:22.153Z,102169.02
2019-01-10T05:30:55.995Z,102166.00
2019-01-10T05:32:28.835Z,102166.48
2019-01-10T05:34:02.892Z,102165.63
2019-01-10T05:35:36.606Z,102165.26
2019-01-10T05:37:09.470Z,102161.35
2019-01-10T05:38:43.210Z,102164.11
2019-01-10T05:40:16.164Z,102163.73
2019-01-10T05:41:49.886Z,102158.53
2019-01-10T05:43:23.721Z,102166.50
2019-01-10T05:44:56.574Z,102165.75
2019-01-10T05:46:29.225Z,102162.73
2019-01-10T05:48:02.133Z,102160.55
2019-01-10T05:49:34.994Z,102160.25
2019-01-10T05:51:07.823Z,102161.95
2019-01-10T05:52:41.661Z,102160.62
2019-01-10T05:54:14.519Z,102167.73
2019-01-10T05:55:47.446Z,102174.84
2019-01-10T05:57:20.312Z,102169.17
2019-01-10T05:58:53.115Z,102169.17
2019-01-10T06:00:29.119Z,102178.45
2019-01-10T06:02:03.208Z,102173.25
2019-01-10T06:03:36.940Z,102172.87
2019-01-10T06:05:11.139Z,102169.37
2019-01-10T06:06:45.763Z,102162.37
2019-01-10T06:08:18.791Z,102174.31
2019-01-10T06:09:52.589Z,102173.06
2019-01-10T06:11:26.217Z,102170.03
2019-01-10T06:12:59.106Z,102179.31
2019-01-10T06:14:35.668Z,102176.77
2019-01-10T06:16:05.966Z,102178.09
2019-01-10T06:17:38.557Z,102177.72
2019-01-10T06:19:12.358Z,102179.05
2019-01-10T06:20:45.237Z,102179.05
2019-01-10T06:22:19.168Z,102182.17
2019-01-10T06:23:52.151Z,102187.48
2019-01-10T06:25:26.072Z,102181.80
2019-01-10T06:26:59.312Z,102188.33
2019-01-10T06:28:32.370Z,102183.03
2019-01-10T06:30:07.103Z,102187.01
2019-01-10T06:31:40.827Z,102178.20
2019-01-10T06:33:13.693Z,102173.38
2019-01-10T06:34:46.734Z,102178.30
2019-01-10T06:36:20.478Z,102170.83
2019-01-10T06:37:53.254Z,102174.33
2019-01-10T06:39:26.140Z,102169.97
2019-01-10T06:40:59.931Z,102169.97
2019-01-10T06:42:32.699Z,102175.28
2019-01-10T06:44:05.598Z,102172.25
2019-01-10T06:45:39.371Z,102173.10
2019-01-10T06:47:12.040Z,102175.83
2019-01-10T06:48:45.768Z,102176.61
2019-01-10T06:50:19.719Z,102174.43
2019-01-10T06:51:53.550Z,102181.06
2019-01-10T06:53:27.490Z,102180.21
2019-01-10T06:55:02.111Z,102184.45
2019-01-10T06:56:35.146Z,102188.81
2019-01-10T06:58:07.991Z,102185.95
2019-01-10T06:59:40.872Z,102182.34
2019-01-10T07:01:14.792Z,102183.02
2019-01-10T07:02:48.717Z,102179.41
2019-01-10T07:04:22.523Z,102171.82
2019-01-10T07:05:56.775Z,102174.00
2019-01-10T07:07:30.540Z,102165.19
2019-01-10T07:09:04.489Z,102170.59
2019-01-10T07:10:40.566Z,102173.25
2019-01-10T07:12:13.447Z,102169.27
2019-01-10T07:13:46.238Z,102172.40
2019-01-10T07:15:19.116Z,102174.20
2019-01-10T07:16:53.642Z,102181.69
2019-01-10T07:18:25.025Z,102173.73
2019-01-10T07:19:57.939Z,102173.25
2019-01-10T07:21:31.751Z,102166.72
2019-01-10T07:23:07.648Z,102173.63
2019-01-10T07:24:42.458Z,102172.77
2019-01-10T07:26:18.181Z,102170.13
2019-01-10T07:27:51.241Z,102178.08
2019-01-10T07:29:26.114Z,102179.78
2019-01-10T07:30:59.073Z,102176.27
2019-01-10T07:32:31.929Z,102173.14
2019-01-10T07:34:04.695Z,102180.15
2019-01-10T07:35:37.625Z,102176.55
2019-01-10T07:37:13.140Z,102170.28
2019-01-10T07:38:46.320Z,102177.59
2019-01-10T07:40:21.253Z,102180.50
2019-01-10T07:41:56.975Z,102180.77
2019-01-10T07:43:31.042Z,102174.54
2019-01-10T07:45:04.947Z,102177.84
2019-01-10T07:46:38.872Z,102171.57
2019-01-10T07:48:12.669Z,102168.33
2019-01-10T07:49:46.530Z,102168.73
2019-01-10T07:51:19.393Z,102157.16
2019-01-10T07:52:52.243Z,102165.50
2019-01-10T07:54:26.216Z,102162.73
2019-01-10T07:56:01.170Z,102156.37
2019-01-10T07:57:34.975Z,102159.39
2019-01-10T07:59:07.712Z,102151.36
2019-01-10T08:00:41.696Z,102157.41
2019-01-10T08:02:14.657Z,102152.95
2019-01-10T08:03:49.271Z,102150.55
2019-01-10T08:05:23.132Z,102147.42
2019-01-10T08:06:55.984Z,102145.14
2019-01-10T08:08:30.660Z,102145.51
2019-01-10T08:10:04.564Z,102147.23
2019-01-10T08:11:37.499Z,102151.59
2019-01-10T08:13:12.421Z,102136.03
2019-01-10T08:14:45.224Z,102139.06
2019-01-10T08:16:19.095Z,102140.75
2019-01-10T08:17:51.934Z,102140.64
2019-01-10T08:19:24.786Z,102138.84
2019-01-10T08:20:58.560Z,102140.06
2019-01-10T08:22:31.280Z,102143.01
2019-01-10T08:24:05.009Z,102145.55
2019-01-10T08:25:38.814Z,102146.03
2019-01-10T08:27:12.609Z,102140.50
2019-01-10T08:28:45.755Z,102142.13
2019-01-10T08:30:20.670Z,102147.22
2019-01-10T08:31:53.524Z,102136.48
2019-01-10T08:33:26.471Z,102136.67
2019-01-10T08:35:00.269Z,102135.71
2019-01-10T08:36:34.191Z,102135.01
2019-01-10T08:38:09.156Z,102129.59
2019-01-10T08:39:43.064Z,102135.93
2019-01-10T08:41:17.043Z,102133.90
2019-01-10T08:42:50.618Z,102130.69
2019-01-10T08:44:24.409Z,102131.05
2019-01-10T08:45:58.426Z,102130.94
2019-01-10T08:47:32.317Z,102133.00
2019-01-10T08:49:05.111Z,102127.21
2019-01-10T08:50:41.988Z,102131.56
2019-01-10T08:52:15.687Z,102126.62
2019-01-10T08:53:54.076Z,102131.37
2019-01-10T08:55:22.408Z,102124.25
2019-01-10T08:56:56.179Z,102125.84
2019-01-10T08:58:29.912Z,102125.25
2019-01-10T09:00:02.800Z,102125.05
2019-01-10T09:01:36.702Z,102129.78
2019-01-10T09:03:11.542Z,102132.20
2019-01-10T09:04:46.273Z,102122.72
2019-01-10T09:06:20.052Z,102125.26
2019-01-10T09:07:53.864Z,102127.20
2019-01-10T09:09:27.726Z,102124.36
2019-01-10T09:11:01.341Z,102129.45
2019-01-10T09:12:35.136Z,102131.14
2019-01-10T09:14:08.128Z,102128.26
2019-01-10T09:15:41.979Z,102134.70
2019-01-10T09:17:14.933Z,102131.45
2019-01-10T09:18:48.750Z,102128.80
2019-01-10T09:20:22.939Z,102136.17
2019-01-10T09:21:55.910Z,102123.84
2019-01-10T09:23:28.874Z,102125.17
2019-01-10T09:25:02.044Z,102118.53
2019-01-10T09:26:37.619Z,102119.86
2019-01-10T09:28:09.960Z,102122.52
2019-01-10T09:29:42.775Z,102122.52
2019-01-10T09:31:15.835Z,102114.17
2019-01-10T09:32:48.770Z,102120.70
2019-01-10T09:34:24.946Z,102116.23
2019-01-10T09:35:55.479Z,102117.94
2019-01-10T09:37:29.279Z,102113.95
2019-01-10T09:39:02.302Z,102109.48
2019-01-10T09:40:38.137Z,102117.73
2019-01-10T09:42:12.132Z,102112.30
2019-01-10T09:43:45.904Z,102106.88
2019-01-10T09:45:20.816Z,102107.13
2019-01-10T09:46:53.977Z,102108.37
2019-01-10T09:48:28.723Z,102108.88
2019-01-10T09:50:02.667Z,102102.75
2019-01-10T09:51:36.533Z,102102.41
2019-01-10T09:53:09.406Z,102093.14
2019-01-10T09:54:42.018Z,102085.89
2019-01-10T09:56:16.124Z,102084.45
2019-01-10T09:57:49.958Z,102082.08
2019-01-10T09:59:23.709Z,102079.95
2019-01-10T10:00:57.389Z,102077.57
2019-01-10T10:02:30.861Z,102070.11
2019-01-10T10:04:04.547Z,102071.08
2019-01-10T10:05:38.451Z,102066.97
2019-01-10T10:07:12.311Z,102067.73
2019-01-10T10:08:46.904Z,102067.73
2019-01-10T10:10:20.851Z,102063.41
2019-01-10T10:11:53.987Z,102064.37
2019-01-10T10:13:28.551Z,102066.22
2019-01-10T10:15:01.644Z,102066.22
2019-01-10T10:16:34.576Z,102056.94
2019-01-10T10:18:08.689Z,102052.69
2019-01-10T10:19:42.340Z,102048.58
2019-01-10T10:21:15.373Z,102042.44
2019-01-10T10:22:49.219Z,102044.24
2019-01-10T10:24:23.102Z,102043.67
2019-01-10T10:25:56.042Z,102041.60
2019-01-10T10:27:28.930Z,102034.61
2019-01-10T10:29:01.848Z,102043.31
2019-01-10T10:30:37.671Z,102044.04
2019-01-10T10:32:11.137Z,102047.06
2019-01-10T10:33:45.627Z,102048.88
2019-01-10T10:35:19.373Z,102050.84
2019-01-10T10:36:59.252Z,102050.59
2019-01-10T10:38:32.069Z,102044.30
2019-01-10T10:40:05.959Z,102046.22
2019-01-10T10:41:40.641Z,102037.41
2019-01-10T10:43:13.851Z,102034.61
2019-01-10T10:44:46.664Z,102030.00
2019-01-10T10:46:21.219Z,102036.08
2019-01-10T10:47:54.287Z,102031.48
2019-01-10T10:49:28.245Z,102026.51
2019-01-10T10:51:01.066Z,102023.10
2019-01-10T10:52:34.243Z,102019.38
2019-01-10T10:54:08.115Z,102018.14
2019-01-10T10:55:41.868Z,102015.26
2019-01-10T10:57:14.772Z,102020.69
2019-01-10T10:58:47.781Z,102020.83
2019-01-10T11:00:23.233Z,102018.88
2019-01-10T11:01:57.468Z,102020.31
2019-01-10T11:03:30.622Z,102015.61
2019-01-10T11:05:04.451Z,102012.55
2019-01-10T11:06:38.249Z,102006.25
2019-01-10T11:08:12.197Z,102003.22
2019-01-10T11:09:45.822Z,101997.63
2019-01-10T11:11:18.472Z,101993.89
2019-01-10T11:12:51.414Z,101987.59
2019-01-10T11:14:24.259Z,101978.61
2019-01-10T11:15:57.902Z,101985.38
2019-01-10T11:17:31.648Z,101986.48
2019-01-10T11:19:04.487Z,101987.06
2019-01-10T11:20:39.165Z,101981.59
2019-01-10T11:22:12.970Z,101986.34
2019-01-10T11:24:17.156Z,101987.05
2019-01-10T11:25:50.858Z,101977.33
2019-01-10T11:27:24.666Z,101974.17
2019-01-10T11:28:57.529Z,101974.55
2019-01-10T11:30:33.573Z,101967.89
2019-01-10T11:32:13.079Z,101965.94
2019-01-10T11:33:40.560Z,101961.80
2019-01-10T11:35:14.302Z,101964.83
2019-01-10T11:36:48.107Z,101963.50
2019-01-10T11:38:20.812Z,101959.77
2019-01-10T11:39:55.391Z,101956.47
2019-01-10T11:41:28.316Z,101951.98
2019-01-10T11:43:01.240Z,101950.28
2019-01-10T11:44:34.370Z,101946.28
2019-01-10T11:46:08.059Z,101945.78
2019-01-10T11:47:40.965Z,101936.06
2019-01-10T11:49:13.822Z,101938.99
2019-01-10T11:50:47.638Z,101938.48
2019-01-10T11:52:20.738Z,101935.91
2019-01-10T11:53:53.591Z,101934.58
2019-01-10T11:55:28.749Z,101936.03
2019-01-10T11:57:02.811Z,101932.03
2019-01-10T11:58:35.873Z,101933.14
2019-01-10T12:00:10.422Z,101933.09
2019-01-10T12:01:42.515Z,101928.47
2019-01-10T12:03:17.411Z,101924.11
2019-01-10T12:04:51.017Z,101920.11
2019-01-10T12:06:24.004Z,101914.41
2019-01-10T12:07:56.999Z,101912.45
2019-01-10T12:09:30.750Z,101909.48
2019-01-10T12:11:04.632Z,101919.52
2019-01-10T12:12:37.492Z,101915.88
2019-01-10T12:14:10.563Z,101910.41
2019-01-10T12:15:44.416Z,101911.50
2019-01-10T12:17:17.259Z,101914.27
2019-01-10T12:18:59.043Z,101917.70
2019-01-10T12:20:26.253Z,101911.39
2019-01-10T12:21:59.078Z,101920.84
2019-01-10T12:23:33.980Z,101914.88
2019-01-10T12:25:08.169Z,101908.98
2019-01-10T12:26:41.033Z,101907.12
2019-01-10T12:28:14.988Z,101903.38
2019-01-10T12:29:47.769Z,101904.45
2019-01-10T12:31:20.517Z,101901.89
2019-01-10T12:32:53.520Z,101903.23
2019-01-10T12:34:27.229Z,101905.19
2019-01-10T12:36:01.065Z,101900.56
2019-01-10T12:37:33.800Z,101897.89
2019-01-10T12:39:07.586Z,101893.89
2019-01-10T12:40:42.566Z,101885.77
2019-01-10T12:42:15.382Z,101889.42
2019-01-10T12:43:48.247Z,101875.70
2019-01-10T12:45:23.073Z,101883.56
2019-01-10T12:46:56.894Z,101875.56
2019-01-10T12:48:29.576Z,101874.58
2019-01-10T12:50:03.585Z,101886.81
2019-01-10T12:51:36.425Z,101878.80
2019-01-10T12:53:10.352Z,101874.34
2019-01-10T12:54:44.293Z,101875.05
2019-01-10T12:56:18.935Z,101875.05
2019-01-10T12:57:52.016Z,101867.67
2019-01-10T12:59:24.950Z,101865.95
2019-01-10T13:00:59.574Z,101862.92
2019-01-10T13:02:33.412Z,101858.33
2019-01-10T13:04:06.505Z,101867.04
2019-01-10T13:05:39.327Z,101865.24
2019-01-10T13:07:13.889Z,101862.58
2019-01-10T13:08:45.082Z,101859.06
2019-01-10T13:10:19.777Z,101856.50
2019-01-10T13:11:52.691Z,101859.73
2019-01-10T13:13:26.481Z,101852.44
2019-01-10T13:15:00.445Z,101840.30
2019-01-10T13:16:33.230Z,101841.33
2019-01-10T13:18:06.860Z,101848.85
2019-01-10T13:19:39.892Z,101836.79
2019-01-10T13:21:12.837Z,101834.83
2019-01-10T13:22:46.594Z,101822.81
2019-01-10T13:24:20.500Z,101823.52
2019-01-10T13:25:59.532Z,101828.23
2019-01-10T13:27:27.588Z,101817.31
2019-01-10T13:29:00.564Z,101810.99
2019-01-10T13:30:36.388Z,101792.80
2019-01-10T13:32:12.034Z,101791.85
2019-01-10T13:33:44.739Z,101793.19
2019-01-10T13:35:18.553Z,101790.09
2019-01-10T13:36:52.530Z,101787.77
2019-01-10T13:38:25.442Z,101784.97
2019-01-10T13:39:59.316Z,101786.52
2019-01-10T13:41:33.044Z,101779.84
2019-01-10T13:43:05.871Z,101776.82
2019-01-10T13:44:39.803Z,101776.55
2019-01-10T13:46:13.549Z,101777.98
2019-01-10T13:47:47.471Z,101778.69
2019-01-10T13:49:21.305Z,101775.53
2019-01-10T13:50:55.010Z,101767.38
2019-01-10T13:52:28.815Z,101767.73
2019-01-10T13:54:02.496Z,101769.06
2019-01-10T13:55:38.008Z,101763.73
2019-01-10T13:57:10.794Z,101767.13
2019-01-10T13:58:44.591Z,101763.48
2019-01-10T14:00:18.426Z,101760.14
2019-01-10T14:01:52.361Z,101746.31
2019-01-10T14:03:25.116Z,101742.30
2019-01-10T14:04:58.921Z,101738.94
2019-01-10T14:06:31.826Z,101730.22
2019-01-10T14:08:04.601Z,101732.65
2019-01-10T14:09:38.517Z,101724.89
2019-01-10T14:12:15.252Z,101726.58
2019-01-10T14:13:49.056Z,101715.41
2019-01-10T14:15:23.911Z,101716.88
2019-01-10T14:17:01.568Z,101721.73
2019-01-10T14:18:30.526Z,101714.81
2019-01-10T14:20:04.376Z,101710.56
2019-01-10T14:21:38.135Z,101710.77
2019-01-10T14:23:12.999Z,101713.65
2019-01-10T14:24:46.661Z,101706.34
2019-01-10T14:26:20.573Z,101713.12
2019-01-10T14:27:59.371Z,101715.09
2019-01-10T14:29:27.651Z,101713.26
2019-01-10T14:31:02.557Z,101708.06
2019-01-10T14:32:36.374Z,101698.92
2019-01-10T14:34:14.195Z,101697.94
2019-01-10T14:35:44.086Z,101696.05
2019-01-10T14:37:18.083Z,101691.62
2019-01-10T14:38:51.811Z,101692.95
2019-01-10T14:40:26.932Z,101689.94
2019-01-10T14:42:00.405Z,101700.12
2019-01-10T14:43:33.197Z,101693.09
2019-01-10T14:45:06.278Z,101699.77
2019-01-10T14:46:40.083Z,101699.42
2019-01-10T14:48:14.334Z,101698.34
2019-01-10T14:49:49.050Z,101692.30
2019-01-10T14:51:22.764Z,101690.26
2019-01-10T14:52:56.567Z,101687.23
2019-01-10T14:54:30.400Z,101686.19
2019-01-10T14:56:04.212Z,101696.23
2019-01-10T14:57:37.494Z,101686.89
2019-01-10T14:59:11.382Z,101683.59
2019-01-10T15:00:46.184Z,101683.59
2019-01-10T15:02:21.195Z,101686.47
2019-01-10T15:03:54.042Z,101681.23
2019-01-10T15:05:33.989Z,101674.41
2019-01-10T15:07:02.040Z,101671.45
2019-01-10T15:08:35.753Z,101662.70
2019-01-10T15:10:09.472Z,101657.22
2019-01-10T15:11:42.282Z,101653.13
2019-01-10T15:13:16.206Z,101650.45
2019-01-10T15:14:50.346Z,101650.20
2019-01-10T15:16:24.147Z,101650.20
2019-01-10T15:17:57.125Z,101646.60
2019-01-10T15:19:29.850Z,101647.83
2019-01-10T15:21:02.760Z,101643.23
2019-01-10T15:22:37.314Z,101645.16
2019-01-10T15:24:12.260Z,101635.17
2019-01-10T15:25:46.096Z,101618.52
2019-01-10T15:27:20.063Z,101626.03
2019-01-10T15:28:52.875Z,101617.13
2019-01-10T15:30:28.896Z,101615.16
2019-01-10T15:32:01.816Z,101615.70
2019-01-10T15:33:36.319Z,101614.45
2019-01-10T15:35:10.236Z,101613.82
2019-01-10T15:36:43.986Z,101603.84
2019-01-10T15:38:17.943Z,101603.63
2019-01-10T15:39:52.129Z,101605.52
2019-01-10T15:41:26.104Z,101599.91
2019-01-10T15:42:59.904Z,101606.36
2019-01-10T15:44:33.911Z,101603.28
2019-01-10T15:46:07.583Z,101601.45
2019-01-10T15:47:41.388Z,101594.62
2019-01-10T15:49:14.992Z,101591.05
2019-01-10T15:50:48.929Z,101592.39
2019-01-10T15:52:23.654Z,101583.95
2019-01-10T15:53:57.525Z,101580.93
2019-01-10T15:55:32.287Z,101578.75
2019-01-10T15:57:06.157Z,101572.91
2019-01-10T15:58:40.015Z,101575.44
2019-01-10T16:00:13.785Z,101564.61
2019-01-10T16:01:48.449Z,101560.55
2019-01-10T16:03:22.238Z,101553.58
2019-01-10T16:04:55.321Z,101565.25
2019-01-10T16:06:29.028Z,101556.84
2019-01-10T16:08:01.861Z,101545.78
2019-01-10T16:09:35.929Z,101537.91
2019-01-10T16:11:09.785Z,101540.73
2019-01-10T16:12:42.732Z,101536.09
2019-01-10T16:14:16.654Z,101532.58
2019-01-10T16:15:50.272Z,101534.64
2019-01-10T16:17:25.606Z,101535.67
2019-01-10T16:18:59.876Z,101527.17
2019-01-10T16:20:33.697Z,101518.17
2019-01-10T16:22:08.316Z,101511.14
2019-01-10T16:23:42.208Z,101511.19
2019-01-10T16:25:16.103Z,101502.22
2019-01-10T16:26:49.888Z,101509.16
2019-01-10T16:28:23.736Z,101506.34
2019-01-10T16:29:57.645Z,101495.66
2019-01-10T16:31:31.350Z,101495.81
2019-01-10T16:33:04.230Z,101497.15
2019-01-10T16:34:37.956Z,101491.47
2019-01-10T16:36:11.947Z,101489.70
2019-01-10T16:37:44.670Z,101482.05
2019-01-10T16:39:18.446Z,101478.28
2019-01-10T16:40:53.371Z,101469.28
2019-01-10T16:42:29.184Z,101467.23
2019-01-10T16:44:03.867Z,101465.45
2019-01-10T16:45:40.824Z,101457.44
2019-01-10T16:47:14.651Z,101453.16
2019-01-10T16:48:48.681Z,101459.48
2019-01-10T16:50:23.814Z,101458.77
2019-01-10T16:51:56.907Z,101459.41
2019-01-10T16:53:30.833Z,101458.42
2019-01-10T16:55:04.755Z,101465.97
2019-01-10T16:56:38.492Z,101466.31
2019-01-10T16:58:12.371Z,101470.66
2019-01-10T16:59:45.187Z,101471.45
2019-01-10T17:01:18.986Z,101469.77
2019-01-10T17:02:52.774Z,101459.78
2019-01-10T17:04:26.563Z,101465.97
2019-01-10T17:06:01.259Z,101448.69
2019-01-10T17:07:35.230Z,101449.64
2019-01-10T17:09:10.030Z,101445.94
2019-01-10T17:10:42.999Z,101447.47
2019-01-10T17:12:15.779Z,101451.42
2019-01-10T17:13:50.422Z,101445.64
2019-01-10T17:15:24.301Z,101442.02
2019-01-10T17:16:58.120Z,101440.87
2019-01-10T17:18:31.897Z,101434.47
2019-01-10T17:20:05.862Z,101433.52
2019-01-10T17:21:39.694Z,101431.11
2019-01-10T17:23:13.504Z,101427.60
2019-01-10T17:24:48.180Z,101422.91
2019-01-10T17:26:21.022Z,101421.91
2019-01-10T17:27:54.701Z,101411.16
2019-01-10T17:29:28.331Z,101405.12
2019-01-10T17:31:02.163Z,101410.54
2019-01-10T17:32:36.865Z,101392.03
2019-01-10T17:34:11.848Z,101382.53
2019-01-10T17:35:47.647Z,101389.55
2019-01-10T17:37:21.804Z,101388.72
2019-01-10T17:38:54.559Z,101385.66
2019-01-10T17:40:30.457Z,101385.50
2019-01-10T17:42:04.322Z,101389.87
2019-01-10T17:43:39.036Z,101384.42
2019-01-10T17:45:15.129Z,101373.08
2019-01-10T17:46:47.999Z,101371.56
2019-01-10T17:48:22.969Z,101367.17
2019-01-10T17:49:56.801Z,101373.05